createdAt,value
2022-09-23T00:07:33.813Z,100959.16
2022-09-23T00:17:36.872Z,100955.72
2022-09-23T00:27:42.400Z,100949.59
2022-09-23T00:37:45.449Z,100945.87
2022-09-23T00:47:53.138Z,100949.97
2022-09-23T00:57:59.079Z,100923.59
2022-09-23T01:08:04.862Z,100922.53
2022-09-23T01:18:14.521Z,100926.69
2022-09-23T01:28:36.748Z,100926.44
2022-09-23T01:38:42.854Z,100930.69
2022-09-23T01:48:49.483Z,100918.47
2022-09-23T01:58:57.984Z,100930.91
2022-09-23T02:09:03.307Z,100935.88
2022-09-23T02:19:10.613Z,100924.63
2022-09-23T02:29:20.647Z,100914.53
2022-09-23T02:39:30.195Z,100921.63
2022-09-23T02:49:36.543Z,100918.63
2022-09-23T02:59:41.006Z,100933.31
2022-09-23T03:09:51.523Z,100930.41
2022-09-23T03:19:59.306Z,100921.75
2022-09-23T03:30:02.583Z,100918.72
2022-09-23T03:40:12.097Z,100921.37
2022-09-23T03:50:17.279Z,100916.09
2022-09-23T04:00:21.932Z,100915.16
2022-09-23T04:10:25.027Z,100925.94
2022-09-23T04:20:30.302Z,100926.28
2022-09-23T04:30:33.338Z,100921.44
2022-09-23T04:40:37.974Z,100925.37
2022-09-23T04:50:41.403Z,100917.19
2022-09-23T05:00:46.060Z,100934.81
2022-09-23T05:10:49.792Z,100934.50
2022-09-23T05:20:56.379Z,100948.63
2022-09-23T05:31:04.355Z,100957.81
2022-09-23T05:41:11.410Z,100957.31
2022-09-23T05:51:16.269Z,100962.37
2022-09-23T06:01:22.545Z,100962.28
2022-09-23T06:11:26.305Z,100963.97
2022-09-23T06:21:30.891Z,100954.41
2022-09-23T06:31:34.088Z,100963.34
2022-09-23T06:41:39.266Z,100963.63
2022-09-23T06:51:42.684Z,100965.50
2022-09-23T07:01:48.403Z,100970.66
2022-09-23T07:11:51.686Z,100969.00
2022-09-23T07:21:56.100Z,100959.41
2022-09-23T07:32:10.349Z,100966.56
2022-09-23T07:42:19.081Z,100973.03
2022-09-23T07:52:22.229Z,100967.38
2022-09-23T08:02:26.762Z,100965.66
2022-09-23T08:12:31.161Z,100968.28
2022-09-23T08:22:35.583Z,100970.91
2022-09-23T08:32:38.687Z,100968.59
2022-09-23T08:42:45.471Z,100957.19
2022-09-23T08:52:52.028Z,100948.31
2022-09-23T09:02:56.972Z,100948.50
2022-09-23T09:13:05.387Z,100937.25
2022-09-23T09:23:19.628Z,100927.44
2022-09-23T09:33:26.080Z,100922.97
2022-09-23T09:43:32.405Z,100918.03
2022-09-23T09:53:35.836Z,100912.06
2022-09-23T10:03:42.431Z,100896.03
2022-09-23T10:14:05.550Z,100892.69
2022-09-23T10:24:21.776Z,100894.84
2022-09-23T10:34:28.455Z,100889.78
2022-09-23T10:45:03.290Z,100867.34
2022-09-23T10:55:17.505Z,100868.50
2022-09-23T11:05:32.735Z,100857.87
2022-09-23T11:15:46.213Z,100857.84
2022-09-23T11:25:55.743Z,100846.69
2022-09-23T11:36:01.731Z,100844.22
2022-09-23T11:46:10.991Z,100829.09
2022-09-23T11:56:30.862Z,100838.91
2022-09-23T12:06:42.805Z,100813.22
2022-09-23T12:16:59.483Z,100811.78
2022-09-23T12:27:07.480Z,100810.69
2022-09-23T12:37:10.641Z,100794.91
2022-09-23T12:47:38.934Z,100780.59
2022-09-23T12:57:42.845Z,100763.66
2022-09-23T13:07:50.525Z,100757.34
2022-09-23T13:17:53.679Z,100743.09
2022-09-23T13:28:01.526Z,100739.97
2022-09-23T13:38:12.416Z,100738.47
2022-09-23T13:48:16.992Z,100731.81
2022-09-23T13:58:21.980Z,100730.03
2022-09-23T14:08:26.740Z,100728.22
2022-09-23T14:18:34.589Z,100735.47
2022-09-23T14:28:39.391Z,100729.47
2022-09-23T14:38:54.313Z,100711.56
2022-09-23T14:49:02.445Z,100709.91
2022-09-23T14:59:25.273Z,100701.50
2022-09-23T15:09:32.463Z,100701.81
2022-09-23T15:19:37.121Z,100705.78
2022-09-23T15:29:41.578Z,100701.91
2022-09-23T15:39:44.729Z,100682.91
2022-09-23T15:49:49.526Z,100680.59
2022-09-23T15:59:52.956Z,100679.56
2022-09-23T16:09:58.743Z,100691.53
2022-09-23T16:20:02.094Z,100690.87
2022-09-23T16:30:08.146Z,100691.69
2022-09-23T16:40:11.593Z,100687.66
2022-09-23T16:50:17.229Z,100691.63
2022-09-23T17:00:37.996Z,100693.94
2022-09-23T17:10:43.096Z,100702.56
2022-09-23T17:20:46.171Z,100696.28
2022-09-23T17:30:52.174Z,100701.69
2022-09-23T17:40:59.136Z,100711.41
2022-09-23T17:51:05.108Z,100703.38
2022-09-23T18:01:10.840Z,100717.12
2022-09-23T18:11:17.375Z,100726.25
2022-09-23T18:21:20.851Z,100731.13
2022-09-23T18:31:25.621Z,100720.91
2022-09-23T18:41:28.791Z,100722.00
2022-09-23T18:51:34.914Z,100731.06
2022-09-23T19:01:38.641Z,100733.78
2022-09-23T19:11:44.382Z,100740.84
2022-09-23T19:21:47.518Z,100744.41
2022-09-23T19:31:52.072Z,100742.69
2022-09-23T19:41:55.769Z,100739.25
2022-09-23T19:52:00.394Z,100749.72
2022-09-23T20:02:03.507Z,100744.47
2022-09-23T20:12:08.131Z,100750.50
2022-09-23T20:22:29.667Z,100755.72
2022-09-23T20:32:40.773Z,100749.47
2022-09-23T20:42:49.007Z,100742.63
2022-09-23T20:52:54.434Z,100734.69
2022-09-23T21:02:57.516Z,100749.28
2022-09-23T21:13:02.276Z,100741.28
2022-09-23T21:23:06.303Z,100745.56
2022-09-23T21:33:11.185Z,100750.84
2022-09-23T21:43:14.427Z,100749.94
2022-09-23T21:53:18.903Z,100740.16
2022-09-23T22:03:21.995Z,100744.38
2022-09-23T22:13:26.402Z,100755.66
2022-09-23T22:23:29.454Z,100753.84
2022-09-23T22:33:33.912Z,100748.50
2022-09-23T22:43:37.439Z,100753.44
2022-09-23T22:53:41.856Z,100751.06
2022-09-23T23:03:45.754Z,100745.53
2022-09-23T23:13:50.248Z,100754.16
2022-09-23T23:23:54.177Z,100757.31
2022-09-23T23:33:58.711Z,100757.12
2022-09-23T23:44:02.177Z,100749.31
2022-09-23T23:54:06.804Z,100752.09
